createdAt,value
2023-02-14T00:01:31.540Z,0.40
2023-02-14T00:04:01.046Z,0.40
2023-02-14T00:06:28.949Z,0.32
2023-02-14T00:08:58.844Z,0.40
2023-02-14T00:11:28.574Z,0.30
2023-02-14T00:14:14.862Z,0.40
2023-02-14T00:16:42.481Z,0.35
2023-02-14T00:19:12.312Z,0.43
2023-02-14T00:21:42.757Z,0.43
2023-02-14T00:24:12.762Z,0.20
2023-02-14T00:26:41.164Z,0.38
2023-02-14T00:29:13.841Z,0.30
2023-02-14T00:31:42.050Z,0.40
2023-02-14T00:34:10.704Z,0.30
2023-02-14T00:36:38.652Z,0.40
2023-02-14T00:39:08.365Z,0.45
2023-02-14T00:41:38.062Z,0.30
2023-02-14T00:44:06.037Z,0.30
2023-02-14T00:46:34.029Z,0.30
2023-02-14T00:49:01.593Z,0.40
2023-02-14T00:51:29.055Z,0.55
2023-02-14T00:53:56.814Z,0.40
2023-02-14T00:56:24.380Z,0.57
2023-02-14T00:58:51.820Z,0.40
2023-02-14T01:01:20.046Z,0.60
2023-02-14T01:03:47.754Z,0.52
2023-02-14T01:06:15.168Z,0.30
2023-02-14T01:08:42.835Z,0.40
2023-02-14T01:11:14.667Z,0.43
2023-02-14T01:13:44.644Z,0.20
2023-02-14T01:16:15.452Z,0.30
2023-02-14T01:18:43.333Z,0.30
2023-02-14T01:21:12.983Z,0.50
2023-02-14T01:23:40.434Z,0.20
2023-02-14T01:26:09.213Z,0.30
2023-02-14T01:28:37.132Z,0.77
2023-02-14T01:31:14.597Z,0.35
2023-02-14T01:33:43.571Z,0.28
2023-02-14T01:36:29.024Z,0.40
2023-02-14T01:38:59.453Z,0.55
2023-02-14T01:41:29.605Z,0.52
2023-02-14T01:44:04.172Z,0.40
2023-02-14T01:46:34.177Z,0.40
2023-02-14T01:49:15.894Z,0.47
2023-02-14T01:51:51.117Z,0.30
2023-02-14T01:54:19.958Z,0.57
2023-02-14T01:56:52.365Z,0.30
2023-02-14T01:59:24.351Z,0.30
2023-02-14T02:01:53.631Z,0.40
2023-02-14T02:04:34.084Z,0.30
2023-02-14T02:07:07.588Z,0.30
2023-02-14T02:09:39.656Z,0.22
2023-02-14T02:12:07.460Z,0.52
2023-02-14T02:14:35.444Z,0.73
2023-02-14T02:17:06.573Z,0.20
2023-02-14T02:19:36.738Z,0.47
2023-02-14T02:25:02.760Z,0.65
2023-02-14T02:27:42.396Z,0.35
2023-02-14T02:30:44.140Z,0.30
2023-02-14T02:33:46.045Z,0.30
2023-02-14T02:36:40.846Z,0.60
2023-02-14T02:39:35.163Z,0.63
2023-02-14T02:42:25.022Z,0.30
2023-02-14T02:44:57.846Z,0.68
2023-02-14T02:47:43.786Z,0.43
2023-02-14T02:50:48.264Z,0.50
2023-02-14T02:53:24.593Z,0.30
2023-02-14T02:58:52.257Z,0.22
2023-02-14T03:01:24.645Z,0.20
2023-02-14T03:04:17.136Z,0.55
2023-02-14T03:06:47.563Z,0.50
2023-02-14T03:09:36.275Z,0.55
2023-02-14T03:15:17.750Z,0.35
2023-02-14T03:17:48.924Z,0.47
2023-02-14T03:20:51.215Z,0.43
2023-02-14T03:23:18.950Z,0.30
2023-02-14T03:26:09.010Z,0.68
2023-02-14T03:29:16.466Z,0.35
2023-02-14T03:31:57.143Z,0.40
2023-02-14T03:34:24.870Z,0.20
2023-02-14T03:36:58.033Z,0.10
2023-02-14T03:39:32.740Z,0.30
2023-02-14T03:42:39.059Z,0.28
2023-02-14T03:45:11.601Z,0.60
2023-02-14T03:47:43.346Z,0.38
2023-02-14T03:50:16.343Z,0.20
2023-02-14T03:52:45.220Z,0.47
2023-02-14T03:55:17.131Z,0.57
2023-02-14T03:57:54.580Z,0.28
2023-02-14T04:00:22.238Z,0.80
2023-02-14T04:02:57.058Z,0.20
2023-02-14T04:05:27.997Z,0.30
2023-02-14T04:07:58.166Z,0.30
2023-02-14T04:12:57.311Z,0.52
2023-02-14T04:15:24.941Z,0.22
2023-02-14T04:18:11.251Z,0.30
2023-02-14T04:20:38.994Z,0.75
2023-02-14T04:23:06.682Z,0.60
2023-02-14T04:25:34.947Z,0.98
2023-02-14T04:28:02.704Z,0.40
2023-02-14T04:30:32.830Z,0.22
2023-02-14T04:35:27.855Z,0.43
2023-02-14T04:37:55.437Z,0.30
2023-02-14T04:40:23.040Z,0.25
2023-02-14T04:42:50.784Z,0.35
2023-02-14T04:45:18.530Z,0.32
2023-02-14T04:47:46.152Z,0.20
2023-02-14T04:50:14.057Z,0.95
2023-02-14T04:52:41.922Z,1.30
2023-02-14T04:55:11.784Z,0.52
2023-02-14T04:57:39.385Z,0.38
2023-02-14T05:00:07.327Z,0.40
2023-02-14T05:02:34.976Z,0.30
2023-02-14T05:05:02.575Z,0.85
2023-02-14T05:07:30.142Z,0.10
2023-02-14T05:09:57.803Z,0.93
2023-02-14T05:12:25.534Z,0.30
2023-02-14T05:14:53.069Z,0.52
2023-02-14T05:17:20.664Z,0.88
2023-02-14T05:19:48.592Z,0.55
2023-02-14T05:22:18.392Z,0.40
2023-02-14T05:24:47.149Z,0.50
2023-02-14T05:27:14.956Z,0.52
2023-02-14T05:29:42.584Z,0.50
2023-02-14T05:32:10.177Z,1.45
2023-02-14T05:34:38.112Z,0.40
2023-02-14T05:37:05.698Z,1.17
2023-02-14T05:39:33.346Z,0.43
2023-02-14T05:42:01.018Z,1.83
2023-02-14T05:44:28.673Z,1.65
2023-02-14T05:46:56.428Z,2.92
2023-02-14T05:49:24.150Z,1.42
2023-02-14T05:51:51.749Z,2.72
2023-02-14T05:54:19.390Z,3.08
2023-02-14T05:56:46.858Z,1.90
2023-02-14T05:59:14.645Z,3.28
2023-02-14T06:01:42.267Z,2.65
2023-02-14T06:04:10.100Z,3.22
2023-02-14T06:06:37.721Z,3.15
2023-02-14T06:09:05.312Z,4.63
2023-02-14T06:11:33.308Z,2.15
2023-02-14T06:14:01.005Z,2.33
2023-02-14T06:16:28.922Z,2.92
2023-02-14T06:18:56.553Z,2.63
2023-02-14T06:21:24.223Z,3.47
2023-02-14T06:23:51.832Z,3.60
2023-02-14T06:26:19.323Z,3.28
2023-02-14T06:28:46.902Z,2.85
2023-02-14T06:31:20.760Z,2.35
2023-02-14T06:33:48.375Z,6.63
2023-02-14T06:36:16.198Z,5.50
2023-02-14T06:38:43.892Z,4.32
2023-02-14T06:41:12.550Z,3.35
2023-02-14T06:43:40.290Z,3.10
2023-02-14T06:46:08.163Z,3.15
2023-02-14T06:48:35.868Z,3.72
2023-02-14T06:51:03.485Z,4.03
2023-02-14T06:53:31.246Z,5.75
2023-02-14T06:55:59.041Z,4.80
2023-02-14T06:58:26.986Z,3.90
2023-02-14T07:00:58.851Z,3.35
2023-02-14T07:03:26.975Z,2.95
2023-02-14T07:05:55.089Z,4.65
2023-02-14T07:08:24.130Z,4.25
2023-02-14T07:10:56.418Z,4.00
2023-02-14T07:13:24.387Z,5.20
2023-02-14T07:15:52.153Z,3.50
2023-02-14T07:18:34.914Z,4.38
2023-02-14T07:21:03.070Z,3.13
2023-02-14T07:23:30.803Z,6.38
2023-02-14T07:25:59.247Z,3.85
2023-02-14T07:28:30.484Z,3.13
2023-02-14T07:31:02.542Z,3.17
2023-02-14T07:33:30.615Z,4.15
2023-02-14T07:35:58.053Z,3.75
2023-02-14T07:38:25.818Z,5.50
2023-02-14T07:40:54.641Z,9.00
2023-02-14T07:43:21.995Z,7.22
2023-02-14T07:45:49.684Z,5.75
2023-02-14T07:48:17.146Z,8.18
2023-02-14T07:50:44.566Z,6.35
2023-02-14T07:53:12.630Z,5.70
2023-02-14T07:55:40.791Z,6.80
2023-02-14T07:58:08.344Z,3.17
2023-02-14T08:00:38.019Z,3.05
2023-02-14T08:03:05.668Z,2.75
2023-02-14T08:05:36.035Z,3.58
2023-02-14T08:08:03.921Z,3.30
2023-02-14T08:10:32.127Z,3.88
2023-02-14T08:13:00.136Z,4.43
2023-02-14T08:15:52.291Z,3.40
2023-02-14T08:18:59.364Z,3.88
2023-02-14T08:21:27.406Z,5.35
2023-02-14T08:23:54.873Z,4.18
2023-02-14T08:26:23.373Z,3.30
2023-02-14T08:28:53.305Z,2.75
2023-02-14T08:34:05.653Z,3.25
2023-02-14T08:36:34.303Z,4.20
2023-02-14T08:39:07.625Z,5.72
2023-02-14T08:41:37.180Z,4.78
2023-02-14T08:44:04.893Z,3.80
2023-02-14T08:46:32.589Z,3.67
2023-02-14T08:49:00.818Z,4.68
2023-02-14T08:51:28.833Z,4.78
2023-02-14T08:53:56.498Z,5.30
2023-02-14T08:56:24.956Z,5.13
2023-02-14T08:58:53.545Z,5.65
2023-02-14T09:01:21.651Z,5.45
2023-02-14T09:03:49.294Z,6.63
2023-02-14T09:06:19.088Z,7.05
2023-02-14T09:11:22.400Z,4.57
2023-02-14T09:13:51.126Z,4.00
2023-02-14T09:16:19.617Z,6.75
2023-02-14T09:18:48.027Z,7.25
2023-02-14T09:21:22.438Z,4.60
2023-02-14T09:23:53.334Z,4.15
2023-02-14T09:26:21.091Z,5.53
2023-02-14T09:28:48.862Z,6.05
2023-02-14T09:31:18.183Z,4.63
2023-02-14T09:34:05.689Z,5.43
2023-02-14T09:36:51.510Z,3.55
2023-02-14T09:39:22.215Z,4.13
2023-02-14T09:41:49.401Z,4.57
2023-02-14T09:44:43.270Z,5.22
2023-02-14T09:47:21.092Z,4.95
2023-02-14T09:49:56.271Z,5.50
2023-02-14T09:52:28.851Z,9.05
2023-02-14T09:55:04.153Z,6.72
2023-02-14T09:58:31.191Z,6.82
2023-02-14T10:01:13.761Z,8.40
2023-02-14T10:03:58.868Z,9.95
2023-02-14T10:06:48.987Z,9.27
2023-02-14T10:09:34.375Z,11.70
2023-02-14T10:12:02.293Z,8.00
2023-02-14T10:14:40.860Z,9.57
2023-02-14T10:17:33.890Z,11.98
2023-02-14T10:20:04.394Z,12.43
2023-02-14T10:22:46.063Z,12.95
2023-02-14T10:25:24.483Z,11.27
2023-02-14T10:27:58.250Z,13.50
2023-02-14T10:30:26.627Z,13.63
2023-02-14T10:33:09.688Z,12.98
2023-02-14T10:35:48.470Z,12.38
2023-02-14T10:38:41.424Z,12.93
2023-02-14T10:41:43.577Z,9.82
2023-02-14T10:44:23.085Z,14.70
2023-02-14T10:47:07.573Z,14.60
2023-02-14T10:49:48.692Z,15.73
2023-02-14T10:52:27.624Z,12.85
2023-02-14T10:55:08.890Z,11.77
2023-02-14T10:57:43.105Z,10.93
2023-02-14T11:00:20.251Z,11.15
2023-02-14T11:02:53.940Z,12.07
2023-02-14T11:05:30.220Z,13.80
2023-02-14T11:07:59.382Z,11.02
2023-02-14T11:10:37.372Z,11.05
2023-02-14T11:13:37.643Z,9.70
2023-02-14T11:16:12.224Z,6.85
2023-02-14T11:18:41.314Z,9.82
2023-02-14T11:21:14.540Z,5.95
2023-02-14T11:23:48.516Z,4.80
2023-02-14T11:26:34.637Z,5.57
2023-02-14T11:29:30.410Z,5.07
2023-02-14T11:32:09.472Z,5.80
2023-02-14T11:34:42.507Z,5.63
2023-02-14T11:37:18.216Z,5.05
2023-02-14T11:39:45.790Z,5.22
2023-02-14T11:42:13.598Z,5.35
2023-02-14T11:44:55.957Z,3.88
2023-02-14T11:47:27.313Z,4.50
2023-02-14T11:49:57.374Z,5.60
2023-02-14T11:52:29.802Z,4.10
2023-02-14T11:54:58.778Z,4.85
2023-02-14T11:57:40.065Z,5.50
2023-02-14T12:00:19.491Z,4.13
2023-02-14T12:02:51.863Z,4.43
2023-02-14T12:05:44.869Z,6.28
2023-02-14T12:08:26.098Z,4.90
2023-02-14T12:11:28.643Z,6.00
2023-02-14T12:13:57.893Z,7.47
2023-02-14T12:16:42.390Z,5.15
2023-02-14T12:19:55.853Z,5.80
2023-02-14T12:22:28.405Z,6.45
2023-02-14T12:25:17.091Z,4.63
2023-02-14T12:27:51.255Z,5.25
2023-02-14T12:30:31.234Z,8.13
2023-02-14T12:32:59.333Z,5.55
2023-02-14T12:35:47.879Z,5.03
2023-02-14T12:38:51.738Z,6.40
2023-02-14T12:41:36.294Z,5.07
2023-02-14T12:44:16.461Z,6.00
2023-02-14T12:47:06.182Z,5.47
2023-02-14T12:49:37.107Z,5.72
2023-02-14T12:52:08.271Z,4.53
2023-02-14T12:54:55.048Z,7.13
2023-02-14T12:57:55.300Z,6.00
2023-02-14T13:00:24.980Z,6.22
2023-02-14T13:05:50.986Z,7.90
2023-02-14T13:09:01.428Z,7.13
2023-02-14T13:11:35.971Z,3.75
2023-02-14T13:14:23.044Z,5.38
2023-02-14T13:17:00.222Z,4.40
2023-02-14T13:19:55.280Z,6.05
2023-02-14T13:22:27.361Z,7.82
2023-02-14T13:24:59.960Z,13.35
2023-02-14T13:27:34.244Z,4.82
2023-02-14T13:30:13.945Z,4.25
2023-02-14T13:32:44.771Z,4.50
2023-02-14T13:35:19.377Z,4.18
2023-02-14T13:37:53.776Z,6.70
2023-02-14T13:40:28.116Z,3.78
2023-02-14T13:43:00.320Z,5.45
2023-02-14T13:45:37.737Z,3.13
2023-02-14T13:48:22.110Z,5.15
2023-02-14T13:50:53.148Z,4.90
2023-02-14T13:53:39.681Z,3.65
2023-02-14T13:56:45.631Z,3.28
2023-02-14T13:59:26.914Z,4.38
2023-02-14T14:01:55.077Z,4.35
2023-02-14T14:04:32.098Z,2.88
2023-02-14T14:07:24.482Z,3.95
2023-02-14T14:09:51.902Z,3.38
2023-02-14T14:12:31.055Z,3.78
2023-02-14T14:15:08.207Z,4.07
2023-02-14T14:17:36.731Z,3.10
2023-02-14T14:20:26.755Z,3.35
2023-02-14T14:22:55.825Z,4.03
2023-02-14T14:25:38.203Z,3.17
2023-02-14T14:28:20.939Z,2.40
2023-02-14T14:30:48.993Z,3.20
2023-02-14T14:33:26.239Z,2.63
2023-02-14T14:35:58.589Z,3.08
2023-02-14T14:38:27.833Z,3.30
2023-02-14T14:40:55.988Z,2.72
2023-02-14T14:43:36.293Z,1.92
2023-02-14T14:46:04.897Z,2.95
2023-02-14T14:48:42.627Z,2.53
2023-02-14T14:51:27.103Z,3.78
2023-02-14T14:54:03.501Z,3.22
2023-02-14T14:56:38.646Z,3.28
2023-02-14T14:59:20.128Z,2.40
2023-02-14T15:01:48.462Z,2.85
2023-02-14T15:04:25.098Z,2.22
2023-02-14T15:06:53.139Z,2.45
2023-02-14T15:09:24.316Z,2.15
2023-02-14T15:12:11.822Z,1.40
2023-02-14T15:14:42.004Z,1.27
2023-02-14T15:17:20.326Z,2.20
2023-02-14T15:19:54.648Z,1.27
2023-02-14T15:22:39.622Z,1.58
2023-02-14T15:25:40.119Z,1.67
2023-02-14T15:28:08.588Z,1.75
2023-02-14T15:30:39.126Z,1.88
2023-02-14T15:33:07.710Z,1.20
2023-02-14T15:35:38.322Z,1.40
2023-02-14T15:38:07.319Z,1.00
2023-02-14T15:40:38.964Z,0.80
2023-02-14T15:43:34.536Z,1.70
2023-02-14T15:46:22.951Z,1.92
2023-02-14T15:48:51.422Z,0.98
2023-02-14T15:51:31.107Z,1.30
2023-02-14T15:54:05.050Z,1.90
2023-02-14T15:56:42.159Z,1.20
2023-02-14T15:59:20.791Z,1.40
2023-02-14T16:02:00.473Z,0.93
2023-02-14T16:04:53.180Z,1.35
2023-02-14T16:07:21.215Z,1.45
2023-02-14T16:09:50.211Z,1.00
2023-02-14T16:12:34.562Z,1.45
2023-02-14T16:15:19.450Z,1.05
2023-02-14T16:17:47.614Z,0.95
2023-02-14T16:20:51.516Z,1.00
2023-02-14T16:23:27.977Z,1.00
2023-02-14T16:25:59.215Z,1.20
2023-02-14T16:28:31.784Z,1.17
2023-02-14T16:31:00.458Z,2.38
2023-02-14T16:33:30.139Z,1.42
2023-02-14T16:36:28.310Z,2.15
2023-02-14T16:38:56.239Z,2.65
2023-02-14T16:41:29.990Z,1.80
2023-02-14T16:43:57.761Z,1.58
2023-02-14T16:46:32.941Z,1.95
2023-02-14T16:49:00.757Z,2.00
2023-02-14T16:51:31.551Z,2.40
2023-02-14T16:54:00.861Z,2.42
2023-02-14T16:56:36.877Z,1.85
2023-02-14T16:59:04.747Z,1.73
2023-02-14T17:01:32.726Z,1.80
2023-02-14T17:04:00.486Z,1.75
2023-02-14T17:06:28.793Z,1.52
2023-02-14T17:08:58.194Z,2.28
2023-02-14T17:11:27.212Z,1.67
2023-02-14T17:13:56.076Z,2.67
2023-02-14T17:16:23.628Z,2.80
2023-02-14T17:18:52.447Z,1.90
2023-02-14T17:21:24.027Z,1.90
2023-02-14T17:23:53.476Z,3.03
2023-02-14T17:26:21.595Z,1.30
2023-02-14T17:28:49.521Z,3.38
2023-02-14T17:31:18.186Z,1.75
2023-02-14T17:33:46.017Z,2.03
2023-02-14T17:36:14.787Z,1.92
2023-02-14T17:38:45.258Z,1.73
2023-02-14T17:41:25.115Z,2.17
2023-02-14T17:43:54.921Z,1.92
2023-02-14T17:46:22.994Z,2.70
2023-02-14T17:48:50.290Z,3.05
2023-02-14T17:51:20.446Z,1.88
2023-02-14T17:53:48.543Z,1.75
2023-02-14T17:56:20.298Z,1.77
2023-02-14T17:58:49.463Z,1.52
2023-02-14T18:01:19.371Z,1.83
2023-02-14T18:06:14.661Z,1.98
2023-02-14T18:08:52.847Z,1.77
2023-02-14T18:11:21.425Z,1.70
2023-02-14T18:13:49.825Z,1.23
2023-02-14T18:16:19.583Z,1.70
2023-02-14T18:18:47.481Z,1.73
2023-02-14T18:21:16.333Z,1.20
2023-02-14T18:23:44.315Z,1.60
2023-02-14T18:26:14.073Z,1.73
2023-02-14T18:28:42.234Z,1.55
2023-02-14T18:31:15.541Z,1.30
2023-02-14T18:33:43.229Z,1.48
2023-02-14T18:36:12.531Z,1.73
2023-02-14T18:38:44.152Z,1.50
2023-02-14T18:41:15.069Z,1.60
2023-02-14T18:43:42.716Z,1.15
2023-02-14T18:46:12.647Z,1.33
2023-02-14T18:51:14.512Z,1.27
2023-02-14T18:53:43.264Z,2.05
2023-02-14T18:56:24.327Z,2.08
2023-02-14T18:58:54.850Z,1.20
2023-02-14T19:01:23.689Z,1.10
2023-02-14T19:03:52.965Z,1.95
2023-02-14T19:06:20.952Z,0.88
2023-02-14T19:08:48.718Z,1.00
2023-02-14T19:11:19.737Z,1.50
2023-02-14T19:13:48.773Z,1.10
2023-02-14T19:16:19.910Z,1.00
2023-02-14T19:18:49.769Z,1.30
2023-02-14T19:21:19.938Z,1.55
2023-02-14T19:23:48.246Z,1.17
2023-02-14T19:26:21.187Z,1.13
2023-02-14T19:28:51.698Z,1.23
2023-02-14T19:31:19.529Z,0.98
2023-02-14T19:33:48.079Z,1.30
2023-02-14T19:36:17.955Z,1.00
2023-02-14T19:38:47.840Z,1.00
2023-02-14T19:41:22.821Z,1.10
2023-02-14T19:43:53.608Z,1.27
2023-02-14T19:46:21.472Z,1.10
2023-02-14T19:48:49.717Z,1.30
2023-02-14T19:51:25.845Z,1.10
2023-02-14T19:53:54.186Z,0.95
2023-02-14T19:56:22.671Z,1.17
2023-02-14T19:58:52.048Z,2.60
2023-02-14T20:01:31.576Z,1.08
2023-02-14T20:03:59.267Z,1.30
2023-02-14T20:06:27.575Z,1.20
2023-02-14T20:08:55.632Z,1.40
2023-02-14T20:11:32.389Z,1.67
2023-02-14T20:14:00.911Z,1.00
2023-02-14T20:16:29.820Z,1.50
2023-02-14T20:18:57.923Z,1.30
2023-02-14T20:21:28.441Z,1.25
2023-02-14T20:24:01.039Z,1.10
2023-02-14T20:26:32.727Z,1.10
2023-02-14T20:29:06.047Z,1.45
2023-02-14T20:31:34.471Z,1.65
2023-02-14T20:34:02.471Z,1.50
2023-02-14T20:36:30.517Z,1.70
2023-02-14T20:38:59.620Z,3.65
2023-02-14T20:41:27.941Z,1.27
2023-02-14T20:43:56.078Z,1.60
2023-02-14T20:46:23.815Z,1.20
2023-02-14T20:48:53.279Z,1.35
2023-02-14T20:51:21.791Z,1.52
2023-02-14T20:53:49.613Z,1.50
2023-02-14T20:56:17.322Z,2.03
2023-02-14T20:58:45.084Z,1.48
2023-02-14T21:01:31.127Z,1.25
2023-02-14T21:03:58.904Z,1.85
2023-02-14T21:06:28.793Z,1.30
2023-02-14T21:08:56.595Z,1.20
2023-02-14T21:11:25.205Z,1.40
2023-02-14T21:13:59.561Z,1.60
2023-02-14T21:16:29.347Z,1.70
2023-02-14T21:19:01.394Z,1.73
2023-02-14T21:21:36.202Z,1.70
2023-02-14T21:24:11.227Z,2.45
2023-02-14T21:26:39.870Z,1.95
2023-02-14T21:29:07.933Z,1.42
2023-02-14T21:31:36.725Z,1.33
2023-02-14T21:34:04.927Z,1.48
2023-02-14T21:36:35.742Z,1.48
2023-02-14T21:39:04.390Z,1.80
2023-02-14T21:41:32.321Z,1.63
2023-02-14T21:44:01.195Z,1.77
2023-02-14T21:46:31.230Z,1.63
2023-02-14T21:49:21.650Z,1.55
2023-02-14T21:51:49.331Z,1.80
2023-02-14T21:54:17.673Z,1.52
2023-02-14T21:56:45.581Z,2.10
2023-02-14T21:59:13.280Z,2.17
2023-02-14T22:01:42.445Z,2.00
2023-02-14T22:04:12.321Z,1.50
2023-02-14T22:06:41.063Z,2.25
2023-02-14T22:09:08.903Z,1.92
2023-02-14T22:11:36.600Z,2.03
2023-02-14T22:14:04.364Z,2.67
2023-02-14T22:16:32.177Z,2.10
2023-02-14T22:19:00.035Z,2.28
2023-02-14T22:21:28.027Z,2.13
2023-02-14T22:23:56.270Z,2.15
2023-02-14T22:26:33.920Z,1.73
2023-02-14T22:29:03.149Z,1.73
2023-02-14T22:31:35.352Z,2.03
2023-02-14T22:34:03.742Z,2.13
2023-02-14T22:36:31.467Z,2.20
2023-02-14T22:38:59.334Z,1.95
2023-02-14T22:41:27.004Z,1.83
2023-02-14T22:43:54.865Z,2.20
2023-02-14T22:46:23.543Z,1.90
2023-02-14T22:48:51.443Z,2.10
2023-02-14T22:51:23.620Z,2.78
2023-02-14T22:53:52.033Z,1.88
2023-02-14T22:56:34.623Z,1.90
2023-02-14T22:59:04.914Z,2.08
2023-02-14T23:01:37.078Z,2.13
2023-02-14T23:04:05.034Z,2.55
2023-02-14T23:06:34.580Z,1.85
2023-02-14T23:09:04.631Z,2.63
2023-02-14T23:14:19.830Z,2.05
2023-02-14T23:17:06.346Z,2.00
2023-02-14T23:19:54.087Z,2.13
2023-02-14T23:22:21.569Z,2.30
2023-02-14T23:24:50.274Z,2.78
2023-02-14T23:27:20.129Z,2.60
2023-02-14T23:29:48.452Z,2.10
2023-02-14T23:32:16.472Z,1.85
2023-02-14T23:34:44.667Z,2.80
2023-02-14T23:37:13.806Z,2.22
2023-02-14T23:39:41.596Z,2.22
2023-02-14T23:42:13.839Z,2.35
2023-02-14T23:44:41.624Z,2.67
2023-02-14T23:47:10.283Z,1.80
2023-02-14T23:49:39.020Z,2.35
2023-02-14T23:52:08.364Z,2.65
2023-02-14T23:54:36.146Z,2.08
2023-02-14T23:57:04.392Z,2.50
2023-02-14T23:59:32.368Z,2.08
